Yvonne K. — PBLX — position and weather

sailwx.info

Track history (hours):
 
Tides and Currents Weather Stations Pressure Air Temp Water Temp Dewpoint Dewpoint Depression Visibility Wind Speed Wind Dir Waves Ship Positions

Yvonne K.

Last reported at 2017-Sep-24 17:35 UTC. Time now 2017-Sep-25 04:31 UTC.
Position N 50°34' W 002°26'.

Length 90 m; draft 5.1 m.

Type: Cargo ship. MMSI: 244948000.

Date/timePositionNaut miles runAvg speedWind from/ knotsBaromVisibWave heightAir tempDewpointWater temp
2017-Sep-24 17:35N 50°34' W 002°26'0 2.1
2017-Sep-24 17:30N 50°34' W 002°25'3 0.3
2017-Sep-24 08:37N 50°37' W 002°23'0 0.0
2017-Sep-24 08:28N 50°37' W 002°23'0 0.0
2017-Sep-24 03:55N 50°37' W 002°23'0 0.0
2017-Sep-24 03:10N 50°37' W 002°23'0 0.0
2017-Sep-24 02:52N 50°37' W 002°23'0 0.0
2017-Sep-24 02:22N 50°37' W 002°23'0 0.0
2017-Sep-24 01:58N 50°37' W 002°23'0 0.0
2017-Sep-24 01:28N 50°37' W 002°23'0 0.0
2017-Sep-24 00:58N 50°37' W 002°23'137 2.9
2017-Sep-22 01:47N 50°56' E 001°11'2 7.5
2017-Sep-22 01:30N 50°57' E 001°13'6 6.8
2017-Sep-22 00:37N 51°01' E 001°21'1 6.4
2017-Sep-22 00:30N 51°01' E 001°22'3 6.4
2017-Sep-22 00:00N 51°03' E 001°25'4 7.1
2017-Sep-21 23:30N 51°06' E 001°30'4 8.1
2017-Sep-21 23:00N 51°08' E 001°35'5 9.2
2017-Sep-21 22:31N 51°11' E 001°40'510.3
2017-Sep-21 22:00N 51°15' E 001°46'611.5
2017-Sep-21 21:30N 51°19' E 001°52'611.8
2017-Sep-21 21:00N 51°24' E 001°58'4 8.5
2017-Sep-21 20:30N 51°24' E 002°05'5 9.9
2017-Sep-21 20:00N 51°22' E 002°12'5 9.7
2017-Sep-21 19:30N 51°21' E 002°20'610.9
2017-Sep-21 19:00N 51°23' E 002°28'510.5
2017-Sep-21 18:29N 51°23' E 002°37'610.1
2017-Sep-21 17:54N 51°22' E 002°47'710.6
2017-Sep-21 17:14N 51°22' E 002°58'210.6
2017-Sep-21 17:00N 51°22' E 003°02'510.4
2017-Sep-21 16:30N 51°23' E 003°10'510.1
2017-Sep-21 16:00N 51°24' E 003°18'510.2
2017-Sep-21 15:30N 51°24' E 003°26'510.1
2017-Sep-21 15:00N 51°25' E 003°34'4 8.4
2017-Sep-21 14:30N 51°25' E 003°41'5 9.3
2017-Sep-21 14:00N 51°22' E 003°46'3 5.3
2017-Sep-21 13:30N 51°20' E 003°49'0 0.0
2017-Sep-21 13:00N 51°20' E 003°49'1 1.7
2017-Sep-21 12:31N 51°19' E 003°50'2 3.3
2017-Sep-21 12:01N 51°17' E 003°50'2 5.0
2017-Sep-21 11:31N 51°15' E 003°49'3 6.2
2017-Sep-21 11:01N 51°12' E 003°48'3 6.4
2017-Sep-21 10:31N 51°09' E 003°47'1 1.3
2017-Sep-21 09:59N 51°08' E 003°47'0 0.0
2017-Sep-21 09:30N 51°08' E 003°47'0 0.0
2017-Sep-21 08:59N 51°08' E 003°47'0 0.0
2017-Sep-21 08:29N 51°08' E 003°47'0 0.0
2017-Sep-21 07:59N 51°08' E 003°47'0 0.0
2017-Sep-21 07:30N 51°08' E 003°47'0 0.0
2017-Sep-21 06:59N 51°08' E 003°47'0 0.0
2017-Sep-21 06:29N 51°08' E 003°47'0 0.0
2017-Sep-21 05:59N 51°08' E 003°47'0 0.0
2017-Sep-21 05:29N 51°08' E 003°47'0 0.0
2017-Sep-21 04:59N 51°08' E 003°47'0 0.0
2017-Sep-21 04:29N 51°08' E 003°47'0 0.0
2017-Sep-21 03:59N 51°08' E 003°47'0 0.0
2017-Sep-21 03:29N 51°08' E 003°47'0 0.0
2017-Sep-21 03:00N 51°08' E 003°47'0 0.0
2017-Sep-21 02:29N 51°08' E 003°47'0 0.0
2017-Sep-21 01:59N 51°08' E 003°47'0 0.0
2017-Sep-21 01:29N 51°08' E 003°47'0 0.0
2017-Sep-21 00:59N 51°08' E 003°47'0 0.0
2017-Sep-21 00:29N 51°08' E 003°47'0 0.0
2017-Sep-20 23:59N 51°08' E 003°47'0 0.0
2017-Sep-20 23:29N 51°08' E 003°47'0 0.0
2017-Sep-20 22:59N 51°08' E 003°47'0 0.0
2017-Sep-20 22:29N 51°08' E 003°47'0 0.0
2017-Sep-20 21:59N 51°08' E 003°47'0 0.0
2017-Sep-20 21:29N 51°08' E 003°47'0 0.0
2017-Sep-20 20:59N 51°08' E 003°47'0 0.0
2017-Sep-20 20:29N 51°08' E 003°47'0 0.0
2017-Sep-20 19:59N 51°08' E 003°47'0 0.0
2017-Sep-20 19:29N 51°08' E 003°47'0 0.0
2017-Sep-20 18:59N 51°08' E 003°47'0 0.0
2017-Sep-20 18:30N 51°08' E 003°47'0 0.0
2017-Sep-20 17:59N 51°08' E 003°47'0 0.0
2017-Sep-20 17:30N 51°08' E 003°47'0 0.0
2017-Sep-20 16:59N 51°08' E 003°47'0 0.0
2017-Sep-20 16:24N 51°08' E 003°47'0 0.0
2017-Sep-20 15:59N 51°08' E 003°47'0 0.0
2017-Sep-20 15:30N 51°08' E 003°47'0 0.0
2017-Sep-20 14:59N 51°08' E 003°47'0 0.0
2017-Sep-20 13:56N 51°08' E 003°47'0 0.0
2017-Sep-20 13:29N 51°08' E 003°47'0 0.0
2017-Sep-20 12:59N 51°08' E 003°47'0 0.0
2017-Sep-20 12:29N 51°08' E 003°47'0 0.0
2017-Sep-20 11:56N 51°08' E 003°47'0 0.0
2017-Sep-20 11:29N 51°08' E 003°47'0 0.0
2017-Sep-20 11:00N 51°08' E 003°47'1 1.1
2017-Sep-20 10:30N 51°08' E 003°46'3 5.7
2017-Sep-20 10:00N 51°05' E 003°45'0 0.1
2017-Sep-20 09:30N 51°05' E 003°45'0 0.0
2017-Sep-20 09:00N 51°05' E 003°45'0 0.0
2017-Sep-20 08:30N 51°05' E 003°45'0 0.0
2017-Sep-20 08:00N 51°05' E 003°45'0 0.0
2017-Sep-20 07:27N 51°05' E 003°45'0 0.0
2017-Sep-20 07:00N 51°05' E 003°45'0 0.0
2017-Sep-20 06:30N 51°05' E 003°45'0 0.0
2017-Sep-20 06:00N 51°05' E 003°45'0 0.0
2017-Sep-20 05:30N 51°05' E 003°45'0 0.0
2017-Sep-20 05:00N 51°05' E 003°45'0 0.0
2017-Sep-20 04:30N 51°05' E 003°45'0 0.0
2017-Sep-20 04:00N 51°05' E 003°45'0 0.0
2017-Sep-20 03:30N 51°05' E 003°45'0 0.0
2017-Sep-20 03:00N 51°05' E 003°45'0 0.0
2017-Sep-20 02:30N 51°05' E 003°45'0 0.0
2017-Sep-20 01:57N 51°05' E 003°45'0 0.0
2017-Sep-20 01:30N 51°05' E 003°45'0 0.0
2017-Sep-20 01:00N 51°05' E 003°45'0 0.0
2017-Sep-20 00:30N 51°05' E 003°45'0 0.0
2017-Sep-20 00:00N 51°05' E 003°45'0 0.0
2017-Sep-19 23:30N 51°05' E 003°45'0 0.0
2017-Sep-19 23:00N 51°05' E 003°45'0 0.0
2017-Sep-19 22:30N 51°05' E 003°45'0 0.0
2017-Sep-19 22:00N 51°05' E 003°45'0 0.0
2017-Sep-19 21:30N 51°05' E 003°45'0 0.0
2017-Sep-19 21:00N 51°05' E 003°45'0 0.0
2017-Sep-19 20:30N 51°05' E 003°45'0 0.0
2017-Sep-19 20:00N 51°05' E 003°45'0 0.0
2017-Sep-19 19:30N 51°05' E 003°45'0 0.0
2017-Sep-19 19:00N 51°05' E 003°45'0 0.0
2017-Sep-19 18:30N 51°05' E 003°45'0 0.0
2017-Sep-19 18:00N 51°05' E 003°45'0 0.0
2017-Sep-19 17:30N 51°05' E 003°45'0 0.0
2017-Sep-19 16:57N 51°05' E 003°45'0 0.0
2017-Sep-19 16:30N 51°05' E 003°45'0 0.0
2017-Sep-19 16:00N 51°05' E 003°45'0 0.2
2017-Sep-19 15:30N 51°06' E 003°45'0 0.0
2017-Sep-19 15:00N 51°06' E 003°45'0 0.0
2017-Sep-19 14:30N 51°06' E 003°45'0 0.0
2017-Sep-19 14:00N 51°06' E 003°45'0 0.0
2017-Sep-19 13:30N 51°06' E 003°45'0 0.0
2017-Sep-19 13:00N 51°06' E 003°45'0 0.0
2017-Sep-19 12:30N 51°06' E 003°45'0 0.0
2017-Sep-19 12:00N 51°06' E 003°45'0 0.0
2017-Sep-19 11:31N 51°06' E 003°45'2 4.5
2017-Sep-19 11:01N 51°08' E 003°46'4 7.3
2017-Sep-19 10:31N 51°11' E 003°48'4 7.4
2017-Sep-19 10:01N 51°15' E 003°49'4 7.2
2017-Sep-19 09:30N 51°18' E 003°50'1 2.8
2017-Sep-19 09:00N 51°20' E 003°49'0 0.7
2017-Sep-19 08:30N 51°20' E 003°49'1 2.6
2017-Sep-19 08:00N 51°21' E 003°47'4 8.6
2017-Sep-19 07:30N 51°24' E 003°42'4 8.9
2017-Sep-19 07:00N 51°25' E 003°35'4 7.9
2017-Sep-19 06:30N 51°25' E 003°29'4 7.6
2017-Sep-19 06:00N 51°24' E 003°23'3 6.8
2017-Sep-19 05:30N 51°24' E 003°17'3 6.5
2017-Sep-19 05:00N 51°23' E 003°12'4 7.1
2017-Sep-19 04:30N 51°22' E 003°07'4 7.6
2017-Sep-19 04:01N 51°22' E 003°01'4 8.2
2017-Sep-19 03:29N 51°22' E 002°54'4 8.7
2017-Sep-19 03:00N 51°22' E 002°47'4 7.1
2017-Sep-19 02:29N 51°22' E 002°42'2 4.2
2017-Sep-19 02:00N 51°22' E 002°38'2 3.8
2017-Sep-19 01:29N 51°22' E 002°35'2 4.2
2017-Sep-19 00:59N 51°22' E 002°32'2 4.3
2017-Sep-19 00:28N 51°21' E 002°28'2 4.4
2017-Sep-18 23:57N 51°20' E 002°25'5 8.8
2017-Sep-18 23:24N 51°18' E 002°18'410.7
2017-Sep-18 23:00N 51°16' E 002°12'510.7
2017-Sep-18 22:30N 51°13' E 002°05'510.6
2017-Sep-18 22:00N 51°11' E 001°58'510.3
2017-Sep-18 21:30N 51°08' E 001°51'5 9.9
2017-Sep-18 21:00N 51°05' E 001°45'5 9.6
2017-Sep-18 20:30N 51°01' E 001°40'5 9.1
2017-Sep-18 20:00N 50°58' E 001°35'4 8.4
2017-Sep-18 19:29N 50°55' E 001°30'4 7.4
2017-Sep-18 18:58N 50°51' E 001°27'119 8.8
2017-Sep-18 05:28N 50°03' W 001°24'512.0
2017-Sep-18 05:00N 50°02' W 001°32'611.6
2017-Sep-18 04:29N 50°00' W 001°41'511.0
2017-Sep-18 04:00N 49°59' W 001°49'510.2
2017-Sep-18 03:30N 49°57' W 001°57'176 7.8
2017-Sep-17 04:58N 48°13' W 005°32'15 7.5
2017-Sep-17 02:58N 47°60' W 005°21'8 7.7
2017-Sep-17 01:58N 47°53' W 005°15'7 7.9
2017-Sep-17 01:07N 47°48' W 005°08'1 8.1
2017-Sep-17 00:57N 47°48' W 005°06'4 7.9
2017-Sep-17 00:29N 47°45' W 005°02'140 8.4
2017-Sep-16 07:43N 46°23' W 002°15'2 8.1
2017-Sep-16 07:30N 46°22' W 002°13'11 8.5
2017-Sep-16 06:12N 46°15' W 002°00'2 8.5
2017-Sep-16 05:59N 46°14' W 001°58'4 8.4
2017-Sep-16 05:30N 46°12' W 001°54'4 8.5
2017-Sep-16 05:00N 46°09' W 001°49'4 8.7
2017-Sep-16 04:30N 46°08' W 001°43'7 9.2
2017-Sep-16 03:48N 46°07' W 001°33'3 9.7
2017-Sep-16 03:30N 46°07' W 001°29'510.2
2017-Sep-16 03:00N 46°07' W 001°22'5 9.3
2017-Sep-16 02:30N 46°05' W 001°16'5 9.8
2017-Sep-16 02:00N 46°01' W 001°12'5 9.0
2017-Sep-16 01:30N 45°58' W 001°06'4 7.5
2017-Sep-16 01:00N 45°58' W 001°01'2 4.5
2017-Sep-16 00:30N 45°56' W 001°00'2 0.1
2017-Sep-14 18:36N 45°58' W 001°01'110.5
2017-Sep-14 18:27N 45°58' W 001°02'510.9
2017-Sep-14 17:59N 45°60' W 001°09'  
Track history (hours):
 
Tides and Currents Weather Stations Pressure Air Temp Water Temp Dewpoint Dewpoint Depression Visibility Wind Speed Wind Dir Waves Ship Positions

Yvonne K.

Last reported at 2017-Sep-24 17:35 UTC. Time now 2017-Sep-25 04:31 UTC.
Position N 50°34' W 002°26'.

Length 90 m; draft 5.1 m.

Type: Cargo ship. MMSI: 244948000.

Date/timePositionNaut miles runAvg speedWind from/ knotsBaromVisibWave heightAir tempDewpointWater temp
2017-Sep-24 17:35N 50°34' W 002°26'0 2.1
2017-Sep-24 17:30N 50°34' W 002°25'3 0.3
2017-Sep-24 08:37N 50°37' W 002°23'0 0.0
2017-Sep-24 08:28N 50°37' W 002°23'0 0.0
2017-Sep-24 03:55N 50°37' W 002°23'0 0.0
2017-Sep-24 03:10N 50°37' W 002°23'0 0.0
2017-Sep-24 02:52N 50°37' W 002°23'0 0.0
2017-Sep-24 02:22N 50°37' W 002°23'0 0.0
2017-Sep-24 01:58N 50°37' W 002°23'0 0.0
2017-Sep-24 01:28N 50°37' W 002°23'0 0.0
2017-Sep-24 00:58N 50°37' W 002°23'137 2.9
2017-Sep-22 01:47N 50°56' E 001°11'2 7.5
2017-Sep-22 01:30N 50°57' E 001°13'6 6.8
2017-Sep-22 00:37N 51°01' E 001°21'1 6.4
2017-Sep-22 00:30N 51°01' E 001°22'3 6.4
2017-Sep-22 00:00N 51°03' E 001°25'4 7.1
2017-Sep-21 23:30N 51°06' E 001°30'4 8.1
2017-Sep-21 23:00N 51°08' E 001°35'5 9.2
2017-Sep-21 22:31N 51°11' E 001°40'510.3
2017-Sep-21 22:00N 51°15' E 001°46'611.5
2017-Sep-21 21:30N 51°19' E 001°52'611.8
2017-Sep-21 21:00N 51°24' E 001°58'4 8.5
2017-Sep-21 20:30N 51°24' E 002°05'5 9.9
2017-Sep-21 20:00N 51°22' E 002°12'5 9.7
2017-Sep-21 19:30N 51°21' E 002°20'610.9
2017-Sep-21 19:00N 51°23' E 002°28'510.5
2017-Sep-21 18:29N 51°23' E 002°37'610.1
2017-Sep-21 17:54N 51°22' E 002°47'710.6
2017-Sep-21 17:14N 51°22' E 002°58'210.6
2017-Sep-21 17:00N 51°22' E 003°02'510.4
2017-Sep-21 16:30N 51°23' E 003°10'510.1
2017-Sep-21 16:00N 51°24' E 003°18'510.2
2017-Sep-21 15:30N 51°24' E 003°26'510.1
2017-Sep-21 15:00N 51°25' E 003°34'4 8.4
2017-Sep-21 14:30N 51°25' E 003°41'5 9.3
2017-Sep-21 14:00N 51°22' E 003°46'3 5.3
2017-Sep-21 13:30N 51°20' E 003°49'0 0.0
2017-Sep-21 13:00N 51°20' E 003°49'1 1.7
2017-Sep-21 12:31N 51°19' E 003°50'2 3.3
2017-Sep-21 12:01N 51°17' E 003°50'2 5.0
2017-Sep-21 11:31N 51°15' E 003°49'3 6.2
2017-Sep-21 11:01N 51°12' E 003°48'3 6.4
2017-Sep-21 10:31N 51°09' E 003°47'1 1.3
2017-Sep-21 09:59N 51°08' E 003°47'0 0.0
2017-Sep-21 09:30N 51°08' E 003°47'0 0.0
2017-Sep-21 08:59N 51°08' E 003°47'0 0.0
2017-Sep-21 08:29N 51°08' E 003°47'0 0.0
2017-Sep-21 07:59N 51°08' E 003°47'0 0.0
2017-Sep-21 07:30N 51°08' E 003°47'0 0.0
2017-Sep-21 06:59N 51°08' E 003°47'0 0.0
2017-Sep-21 06:29N 51°08' E 003°47'0 0.0
2017-Sep-21 05:59N 51°08' E 003°47'0 0.0
2017-Sep-21 05:29N 51°08' E 003°47'0 0.0
2017-Sep-21 04:59N 51°08' E 003°47'0 0.0
2017-Sep-21 04:29N 51°08' E 003°47'0 0.0
2017-Sep-21 03:59N 51°08' E 003°47'0 0.0
2017-Sep-21 03:29N 51°08' E 003°47'0 0.0
2017-Sep-21 03:00N 51°08' E 003°47'0 0.0
2017-Sep-21 02:29N 51°08' E 003°47'0 0.0
2017-Sep-21 01:59N 51°08' E 003°47'0 0.0
2017-Sep-21 01:29N 51°08' E 003°47'0 0.0
2017-Sep-21 00:59N 51°08' E 003°47'0 0.0
2017-Sep-21 00:29N 51°08' E 003°47'0 0.0
2017-Sep-20 23:59N 51°08' E 003°47'0 0.0
2017-Sep-20 23:29N 51°08' E 003°47'0 0.0
2017-Sep-20 22:59N 51°08' E 003°47'0 0.0
2017-Sep-20 22:29N 51°08' E 003°47'0 0.0
2017-Sep-20 21:59N 51°08' E 003°47'0 0.0
2017-Sep-20 21:29N 51°08' E 003°47'0 0.0
2017-Sep-20 20:59N 51°08' E 003°47'0 0.0
2017-Sep-20 20:29N 51°08' E 003°47'0 0.0
2017-Sep-20 19:59N 51°08' E 003°47'0 0.0
2017-Sep-20 19:29N 51°08' E 003°47'0 0.0
2017-Sep-20 18:59N 51°08' E 003°47'0 0.0
2017-Sep-20 18:30N 51°08' E 003°47'0 0.0
2017-Sep-20 17:59N 51°08' E 003°47'0 0.0
2017-Sep-20 17:30N 51°08' E 003°47'0 0.0
2017-Sep-20 16:59N 51°08' E 003°47'0 0.0
2017-Sep-20 16:24N 51°08' E 003°47'0 0.0
2017-Sep-20 15:59N 51°08' E 003°47'0 0.0
2017-Sep-20 15:30N 51°08' E 003°47'0 0.0
2017-Sep-20 14:59N 51°08' E 003°47'0 0.0
2017-Sep-20 13:56N 51°08' E 003°47'0 0.0
2017-Sep-20 13:29N 51°08' E 003°47'0 0.0
2017-Sep-20 12:59N 51°08' E 003°47'0 0.0
2017-Sep-20 12:29N 51°08' E 003°47'0 0.0
2017-Sep-20 11:56N 51°08' E 003°47'0 0.0
2017-Sep-20 11:29N 51°08' E 003°47'0 0.0
2017-Sep-20 11:00N 51°08' E 003°47'1 1.1
2017-Sep-20 10:30N 51°08' E 003°46'3 5.7
2017-Sep-20 10:00N 51°05' E 003°45'0 0.1
2017-Sep-20 09:30N 51°05' E 003°45'0 0.0
2017-Sep-20 09:00N 51°05' E 003°45'0 0.0
2017-Sep-20 08:30N 51°05' E 003°45'0 0.0
2017-Sep-20 08:00N 51°05' E 003°45'0 0.0
2017-Sep-20 07:27N 51°05' E 003°45'0 0.0
2017-Sep-20 07:00N 51°05' E 003°45'0 0.0
2017-Sep-20 06:30N 51°05' E 003°45'0 0.0
2017-Sep-20 06:00N 51°05' E 003°45'0 0.0
2017-Sep-20 05:30N 51°05' E 003°45'0 0.0
2017-Sep-20 05:00N 51°05' E 003°45'0 0.0
2017-Sep-20 04:30N 51°05' E 003°45'0 0.0
2017-Sep-20 04:00N 51°05' E 003°45'0 0.0
2017-Sep-20 03:30N 51°05' E 003°45'0 0.0
2017-Sep-20 03:00N 51°05' E 003°45'0 0.0
2017-Sep-20 02:30N 51°05' E 003°45'0 0.0
2017-Sep-20 01:57N 51°05' E 003°45'0 0.0
2017-Sep-20 01:30N 51°05' E 003°45'0 0.0
2017-Sep-20 01:00N 51°05' E 003°45'0 0.0
2017-Sep-20 00:30N 51°05' E 003°45'0 0.0
2017-Sep-20 00:00N 51°05' E 003°45'0 0.0
2017-Sep-19 23:30N 51°05' E 003°45'0 0.0
2017-Sep-19 23:00N 51°05' E 003°45'0 0.0
2017-Sep-19 22:30N 51°05' E 003°45'0 0.0
2017-Sep-19 22:00N 51°05' E 003°45'0 0.0
2017-Sep-19 21:30N 51°05' E 003°45'0 0.0
2017-Sep-19 21:00N 51°05' E 003°45'0 0.0
2017-Sep-19 20:30N 51°05' E 003°45'0 0.0
2017-Sep-19 20:00N 51°05' E 003°45'0 0.0
2017-Sep-19 19:30N 51°05' E 003°45'0 0.0
2017-Sep-19 19:00N 51°05' E 003°45'0 0.0
2017-Sep-19 18:30N 51°05' E 003°45'0 0.0
2017-Sep-19 18:00N 51°05' E 003°45'0 0.0
2017-Sep-19 17:30N 51°05' E 003°45'0 0.0
2017-Sep-19 16:57N 51°05' E 003°45'0 0.0
2017-Sep-19 16:30N 51°05' E 003°45'0 0.0
2017-Sep-19 16:00N 51°05' E 003°45'0 0.2
2017-Sep-19 15:30N 51°06' E 003°45'0 0.0
2017-Sep-19 15:00N 51°06' E 003°45'0 0.0
2017-Sep-19 14:30N 51°06' E 003°45'0 0.0
2017-Sep-19 14:00N 51°06' E 003°45'0 0.0
2017-Sep-19 13:30N 51°06' E 003°45'0 0.0
2017-Sep-19 13:00N 51°06' E 003°45'0 0.0
2017-Sep-19 12:30N 51°06' E 003°45'0 0.0
2017-Sep-19 12:00N 51°06' E 003°45'0 0.0
2017-Sep-19 11:31N 51°06' E 003°45'2 4.5
2017-Sep-19 11:01N 51°08' E 003°46'4 7.3
2017-Sep-19 10:31N 51°11' E 003°48'4 7.4
2017-Sep-19 10:01N 51°15' E 003°49'4 7.2
2017-Sep-19 09:30N 51°18' E 003°50'1 2.8
2017-Sep-19 09:00N 51°20' E 003°49'0 0.7
2017-Sep-19 08:30N 51°20' E 003°49'1 2.6
2017-Sep-19 08:00N 51°21' E 003°47'4 8.6
2017-Sep-19 07:30N 51°24' E 003°42'4 8.9
2017-Sep-19 07:00N 51°25' E 003°35'4 7.9
2017-Sep-19 06:30N 51°25' E 003°29'4 7.6
2017-Sep-19 06:00N 51°24' E 003°23'3 6.8
2017-Sep-19 05:30N 51°24' E 003°17'3 6.5
2017-Sep-19 05:00N 51°23' E 003°12'4 7.1
2017-Sep-19 04:30N 51°22' E 003°07'4 7.6
2017-Sep-19 04:01N 51°22' E 003°01'4 8.2
2017-Sep-19 03:29N 51°22' E 002°54'4 8.7
2017-Sep-19 03:00N 51°22' E 002°47'4 7.1
2017-Sep-19 02:29N 51°22' E 002°42'2 4.2
2017-Sep-19 02:00N 51°22' E 002°38'2 3.8
2017-Sep-19 01:29N 51°22' E 002°35'2 4.2
2017-Sep-19 00:59N 51°22' E 002°32'2 4.3
2017-Sep-19 00:28N 51°21' E 002°28'2 4.4
2017-Sep-18 23:57N 51°20' E 002°25'5 8.8
2017-Sep-18 23:24N 51°18' E 002°18'410.7
2017-Sep-18 23:00N 51°16' E 002°12'510.7
2017-Sep-18 22:30N 51°13' E 002°05'510.6
2017-Sep-18 22:00N 51°11' E 001°58'510.3
2017-Sep-18 21:30N 51°08' E 001°51'5 9.9
2017-Sep-18 21:00N 51°05' E 001°45'5 9.6
2017-Sep-18 20:30N 51°01' E 001°40'5 9.1
2017-Sep-18 20:00N 50°58' E 001°35'4 8.4
2017-Sep-18 19:29N 50°55' E 001°30'4 7.4
2017-Sep-18 18:58N 50°51' E 001°27'119 8.8
2017-Sep-18 05:28N 50°03' W 001°24'512.0
2017-Sep-18 05:00N 50°02' W 001°32'611.6
2017-Sep-18 04:29N 50°00' W 001°41'511.0
2017-Sep-18 04:00N 49°59' W 001°49'510.2
2017-Sep-18 03:30N 49°57' W 001°57'176 7.8
2017-Sep-17 04:58N 48°13' W 005°32'15 7.5
2017-Sep-17 02:58N 47°60' W 005°21'8 7.7
2017-Sep-17 01:58N 47°53' W 005°15'7 7.9
2017-Sep-17 01:07N 47°48' W 005°08'1 8.1
2017-Sep-17 00:57N 47°48' W 005°06'4 7.9
2017-Sep-17 00:29N 47°45' W 005°02'140 8.4
2017-Sep-16 07:43N 46°23' W 002°15'2 8.1
2017-Sep-16 07:30N 46°22' W 002°13'11 8.5
2017-Sep-16 06:12N 46°15' W 002°00'2 8.5
2017-Sep-16 05:59N 46°14' W 001°58'4 8.4
2017-Sep-16 05:30N 46°12' W 001°54'4 8.5
2017-Sep-16 05:00N 46°09' W 001°49'4 8.7
2017-Sep-16 04:30N 46°08' W 001°43'7 9.2
2017-Sep-16 03:48N 46°07' W 001°33'3 9.7
2017-Sep-16 03:30N 46°07' W 001°29'510.2
2017-Sep-16 03:00N 46°07' W 001°22'5 9.3
2017-Sep-16 02:30N 46°05' W 001°16'5 9.8
2017-Sep-16 02:00N 46°01' W 001°12'5 9.0
2017-Sep-16 01:30N 45°58' W 001°06'4 7.5
2017-Sep-16 01:00N 45°58' W 001°01'2 4.5
2017-Sep-16 00:30N 45°56' W 001°00'2 0.1
2017-Sep-14 18:36N 45°58' W 001°01'110.5
2017-Sep-14 18:27N 45°58' W 001°02'510.9
2017-Sep-14 17:59N 45°60' W 001°09'  

Dump ship's entire track history